Saltar para o conteúdo principal

Alcochete / Campo Tiro

ID 5210758 · 38.7627, -8.7825 mapa

Última leitura · 2026-05-09 18:00 (Europe/Lisbon)

Temperatura
15.5 °C
Humidade
83 %
Pressão
1,007.2 hPa
Precipitação
1.2 mm
Radiação
Velocidade do vento
14.4 km/h
Direcção do vento
SW · Sudoeste

Histórico de 24 horas

Hora (Europe/Lisbon) Temperatura Humidade Pressão Chuva Vento Direcção
2026-05-09 18:00 15.5 °C 83 % 1,007.2 1.2 mm 14.4 km/h SW
2026-05-09 17:00 17.0 °C 75 % 1,006.2 0.1 mm 20.2 km/h W
2026-05-09 16:00 17.9 °C 74 % 1,006.1 0.0 mm 27.0 km/h SW
2026-05-09 15:00 18.5 °C 68 % 1,005.8 0.0 mm 27.7 km/h S
2026-05-09 14:00 19.2 °C 63 % 1,005.5 0.0 mm 31.3 km/h S
2026-05-09 13:00 18.9 °C 65 % 1,005.1 0.0 mm 29.2 km/h S
2026-05-09 12:00 16.7 °C 82 % 1,004.6 0.0 mm 21.2 km/h SW
2026-05-09 11:00 15.9 °C 81 % 1,004.0 1.4 mm 13.0 km/h SW
2026-05-09 10:00 15.4 °C 84 % 1,003.4 0.0 mm 20.9 km/h S
2026-05-09 09:00 13.4 °C 93 % 1,003.5 0.0 mm 16.6 km/h SE
2026-05-09 08:00 12.6 °C 95 % 1,003.4 0.6 mm 13.3 km/h SE
2026-05-09 07:00 13.0 °C 94 % 1,003.4 1.3 mm 14.0 km/h SE
2026-05-09 06:00 13.2 °C 92 % 1,003.3 0.4 mm 21.2 km/h SE
2026-05-09 05:00 12.9 °C 91 % 1,004.1 0.0 mm 7.2 km/h SE
2026-05-09 04:00 13.1 °C 89 % 1,004.6 0.0 mm 9.4 km/h S
2026-05-09 03:00 13.0 °C 87 % 1,005.2 0.0 mm 13.0 km/h SE
2026-05-09 02:00 12.9 °C 87 % 1,006.1 0.0 mm 14.0 km/h SE
2026-05-09 01:00 13.0 °C 88 % 1,006.3 0.0 mm 16.2 km/h S
2026-05-09 00:00 13.6 °C 87 % 1,006.3 0.0 mm 19.8 km/h S
2026-05-08 23:00 13.9 °C 89 % 1,005.5 0.0 mm 22.3 km/h S
2026-05-08 22:00 13.7 °C 91 % 0.8 mm 32.0 km/h E
2026-05-08 21:00 14.2 °C 90 % 0.3 mm 12.2 km/h SE
2026-05-08 20:00 16.1 °C 75 % 0.3 mm 17.6 km/h S
2026-05-08 19:00 17.5 °C 68 % 0.0 mm 14.8 km/h S